Royse City's Hourly Summary for Monday, March 13, 2017
Hour Temp
(f)
RH
(%)
Solar Rad.
(MJ/m2)
Rainfall
(in)
Wind
(mph)
3/13/2017 12:00 AM 45 82 0 0 0.91
3/13/2017 1:00 AM 44 82 0 0 0.06
3/13/2017 2:00 AM 45 86 0 0 0.15
3/13/2017 3:00 AM 46 84 0 0 0.37
3/13/2017 4:00 AM 47 85 0 0 0.37
3/13/2017 5:00 AM 47 86 0 0.03 1.53
3/13/2017 6:00 AM 47 96 0 0.01 2.44
3/13/2017 7:00 AM 47 96 0 0 2.65
3/13/2017 8:00 AM 47 96 0 0 1.23
3/13/2017 9:00 AM 48 94 0.1 0 1.29
3/13/2017 10:00 AM 48 93 0.1 0.01 1.58
3/13/2017 11:00 AM 49 82 0.61 0 3.28
3/13/2017 12:00 PM 51 74 0.64 0 4.75
3/13/2017 1:00 PM 52 70 0.87 0 5.48
3/13/2017 2:00 PM 54 56 2.31 0 5.15
3/13/2017 3:00 PM 58 47 2.67 0 5.62
3/13/2017 4:00 PM 60 36 2.59 0 8.59
3/13/2017 5:00 PM 60 33 2.02 0 8.6
3/13/2017 6:00 PM 58 33 1.27 0 7.63
3/13/2017 7:00 PM 56 30 0.52 0 8.04
3/13/2017 8:00 PM 52 31 0.02 0 5.19
3/13/2017 9:00 PM 49 35 0 0 3.24
3/13/2017 10:00 PM 47 40 0 0 2.58
3/13/2017 11:00 PM 44 46 0 0 2.8
Data Summary 50 66 13.72 0.05 3.48